Time;durP1;ratioP1;P1;durP2;ratioP2;P2;SDS_P1;SDS_P2;PMS_P1;PMS_P2;Temp;Humidity;BMP_temperature;BMP_pressure;BME280_temperature;BME280_humidity;BME280_pressure;Samples;Min_cycle;Max_cycle;Signal;HPM_P1;HPM_P2
2023/02/24 00:01:12;;;;;;;5.03;1.42;;;;;8.90;101422.00;;;;5091215;28;20206;-75
2023/02/24 00:03:43;;;;;;;2.88;1.45;;;;;8.90;101411.00;;;;5089813;28;20248;-75
2023/02/24 00:06:11;;;;;;;4.25;1.70;;;;;8.90;101409.00;;;;5089021;28;20222;-75
2023/02/24 00:08:39;;;;;;;4.30;1.33;;;;;8.90;101409.00;;;;5088190;28;20283;-75
2023/02/24 00:11:11;;;;;;;5.20;2.22;;;;;8.80;101413.00;;;;5085328;28;20219;-75
2023/02/24 00:13:39;;;;;;;6.78;1.63;;;;;8.80;101409.00;;;;5072301;28;20272;-75
2023/02/24 00:16:08;;;;;;;2.95;1.58;;;;;8.80;101401.00;;;;5091230;28;20202;-75
2023/02/24 00:18:35;;;;;;;3.17;1.70;;;;;8.80;101394.00;;;;5077284;28;20545;-75
2023/02/24 00:21:09;;;;;;;4.85;1.55;;;;;8.70;101391.00;;;;5088599;28;20277;-75
2023/02/24 00:23:39;;;;;;;3.22;1.52;;;;;8.70;101382.00;;;;5089084;28;20234;-75
2023/02/24 00:26:07;;;;;;;4.00;1.77;;;;;8.70;101378.00;;;;5086320;28;20214;-75
2023/02/24 00:28:35;;;;;;;4.97;1.67;;;;;8.60;101379.00;;;;5090165;28;20206;-75
2023/02/24 00:31:04;;;;;;;5.55;2.05;;;;;8.60;101380.00;;;;5086797;28;20194;-75
2023/02/24 00:33:34;;;;;;;3.50;1.50;;;;;8.60;101380.00;;;;5090756;28;20225;-75
2023/02/24 00:36:09;;;;;;;4.93;1.70;;;;;8.50;101372.00;;;;5087901;28;20208;-75
2023/02/24 00:38:37;;;;;;;5.15;1.65;;;;;8.50;101369.00;;;;5086877;28;20198;-75
2023/02/24 00:41:13;;;;;;;4.00;1.45;;;;;8.40;101369.00;;;;5089634;28;20198;-76
2023/02/24 00:43:45;;;;;;;3.90;1.92;;;;;8.50;101370.00;;;;5090939;28;20209;-75
2023/02/24 00:46:15;;;;;;;4.28;1.77;;;;;8.40;101360.00;;;;5089702;28;20202;-75
2023/02/24 00:48:45;;;;;;;7.40;1.92;;;;;8.40;101359.00;;;;5089787;28;20201;-75
2023/02/24 00:51:16;;;;;;;5.60;1.55;;;;;8.40;101359.00;;;;5089804;28;20297;-76
2023/02/24 00:53:44;;;;;;;3.55;1.52;;;;;8.30;101351.00;;;;5090678;28;20218;-75
2023/02/24 00:56:12;;;;;;;3.85;1.20;;;;;8.30;101351.00;;;;5090462;28;20202;-75
2023/02/24 00:58:40;;;;;;;4.70;1.38;;;;;8.30;101346.00;;;;5089929;28;20201;-75
2023/02/24 01:01:13;;;;;;;4.50;1.30;;;;;8.20;101340.00;;;;5087900;28;20194;-75
2023/02/24 01:03:41;;;;;;;2.85;1.30;;;;;8.30;101335.00;;;;5073117;28;20199;-75
2023/02/24 01:06:11;;;;;;;1.58;0.93;;;;;8.20;101338.00;;;;5081450;28;20248;-75
2023/02/24 01:08:39;;;;;;;1.92;1.02;;;;;8.20;101341.00;;;;5090238;28;20194;-75
2023/02/24 01:13:51;;;;;;;5.15;1.45;;;;;8.20;101323.00;;;;5090323;28;20266;-75
2023/02/24 01:16:19;;;;;;;4.68;1.80;;;;;8.10;101323.00;;;;5088712;28;20260;-75
2023/02/24 01:18:47;;;;;;;3.08;1.38;;;;;8.10;101319.00;;;;5086376;28;20858;-75
2023/02/24 01:21:18;;;;;;;4.35;1.80;;;;;8.10;101314.00;;;;5076953;28;20190;-75
2023/02/24 01:23:48;;;;;;;2.30;1.17;;;;;8.10;101313.00;;;;5085583;28;20207;-75
2023/02/24 01:26:16;;;;;;;3.10;1.40;;;;;8.00;101312.00;;;;5090021;28;20194;-75
2023/02/24 01:28:44;;;;;;;6.63;1.80;;;;;8.00;101304.00;;;;5090103;28;20202;-75
2023/02/24 01:31:14;;;;;;;2.63;1.20;;;;;8.00;101294.00;;;;5089698;28;20948;-75
2023/02/24 01:33:44;;;;;;;3.83;0.98;;;;;8.00;101295.00;;;;5088602;28;20728;-75
2023/02/24 01:36:15;;;;;;;5.35;1.42;;;;;7.90;101296.00;;;;5089654;28;20621;-75
2023/02/24 01:38:44;;;;;;;7.07;1.60;;;;;7.90;101279.00;;;;5087180;28;20202;-75
2023/02/24 01:41:15;;;;;;;5.88;1.58;;;;;7.90;101267.00;;;;5089959;28;20198;-75
2023/02/24 01:44:01;;;;;;;3.97;1.15;;;;;7.80;101266.00;;;;5088654;28;20198;-75
2023/02/24 01:46:31;;;;;;;5.47;1.48;;;;;7.90;101264.00;;;;5088686;28;20616;-75
2023/02/24 01:49:03;;;;;;;4.78;1.30;;;;;7.80;101253.00;;;;5087029;28;20664;-75
2023/02/24 01:51:36;;;;;;;5.10;1.38;;;;;7.80;101250.00;;;;5087625;28;20205;-75
2023/02/24 01:54:05;;;;;;;4.55;1.48;;;;;7.80;101255.00;;;;5088363;28;20221;-75
2023/02/24 01:56:32;;;;;;;4.78;1.48;;;;;7.80;101244.00;;;;5088537;28;20238;-75
2023/02/24 01:59:02;;;;;;;4.97;1.40;;;;;7.80;101236.00;;;;5087280;28;20205;-75
2023/02/24 02:01:38;;;;;;;6.85;1.60;;;;;7.80;101231.00;;;;5088397;28;20209;-75
2023/02/24 02:04:11;;;;;;;5.35;1.65;;;;;7.70;101234.00;;;;5080120;28;20193;-75
2023/02/24 02:06:40;;;;;;;4.22;1.80;;;;;7.70;101231.00;;;;5078569;28;20195;-75
2023/02/24 02:09:09;;;;;;;4.35;1.88;;;;;7.70;101227.00;;;;5087979;28;20213;-75
2023/02/24 02:11:36;;;;;;;4.30;1.65;;;;;7.70;101227.00;;;;5087430;28;20214;-75
2023/02/24 02:14:04;;;;;;;6.63;1.63;;;;;7.70;101230.00;;;;5083809;28;20221;-75
2023/02/24 02:17:02;;;;;;;6.05;1.80;;;;;7.60;101231.00;;;;5083642;28;20206;-75
2023/02/24 02:20:14;;;;;;;4.18;1.48;;;;;7.50;101236.00;;;;5053152;28;20195;-75
2023/02/24 02:23:10;;;;;;;2.22;1.02;;;;;7.60;101233.00;;;;5084165;28;20304;-75
2023/02/24 02:25:53;;;;;;;3.60;1.08;;;;;7.60;101224.00;;;;5088282;28;20201;-75
2023/02/24 02:28:36;;;;;;;3.00;1.10;;;;;7.60;101215.00;;;;5075427;28;20202;-75
2023/02/24 02:31:30;;;;;;;3.70;1.50;;;;;7.60;101199.00;;;;5089073;28;20194;-75
2023/02/24 02:34:11;;;;;;;2.30;1.08;;;;;7.60;101198.00;;;;5088537;28;20226;-75
2023/02/24 02:36:51;;;;;;;3.03;1.75;;;;;7.60;101202.00;;;;5089217;28;20199;-75
2023/02/24 02:39:26;;;;;;;2.88;1.15;;;;;7.60;101193.00;;;;5087544;28;20202;-75
2023/02/24 02:42:00;;;;;;;3.45;0.95;;;;;7.60;101189.00;;;;5088112;28;20200;-75
2023/02/24 02:44:38;;;;;;;1.60;0.90;;;;;7.60;101179.00;;;;5089211;28;20690;-75
2023/02/24 02:47:12;;;;;;;3.45;1.00;;;;;7.60;101181.00;;;;5086216;28;20224;-75
2023/02/24 02:49:45;;;;;;;1.88;1.15;;;;;7.60;101171.00;;;;5088838;28;20239;-76
2023/02/24 02:52:17;;;;;;;3.78;1.15;;;;;7.60;101166.00;;;;5087308;28;20201;-75
2023/02/24 02:54:48;;;;;;;5.28;1.67;;;;;7.60;101161.00;;;;5088030;28;20230;-75
2023/02/24 02:57:20;;;;;;;5.65;1.30;;;;;7.60;101164.00;;;;5089169;28;20190;-75
2023/02/24 02:59:52;;;;;;;2.55;1.20;;;;;7.60;101154.00;;;;5087976;28;20605;-75
2023/02/24 03:02:27;;;;;;;3.53;1.20;;;;;7.60;101158.00;;;;5087627;28;20206;-76
2023/02/24 03:04:59;;;;;;;5.65;1.58;;;;;7.60;101158.00;;;;5068269;28;20197;-76
2023/02/24 03:07:30;;;;;;;3.63;1.52;;;;;7.60;101158.00;;;;5068611;28;20205;-75
2023/02/24 03:10:01;;;;;;;2.65;1.20;;;;;7.60;101158.00;;;;5085771;28;20349;-75
2023/02/24 03:12:31;;;;;;;3.97;1.77;;;;;7.60;101150.00;;;;5079409;28;20289;-75
2023/02/24 03:15:03;;;;;;;3.45;1.25;;;;;7.60;101145.00;;;;5070483;28;20409;-75
2023/02/24 03:17:33;;;;;;;4.35;1.73;;;;;7.60;101139.00;;;;5090278;28;20285;-75
2023/02/24 03:20:14;;;;;;;3.83;1.60;;;;;7.60;101131.00;;;;5092567;28;20226;-75
2023/02/24 03:22:48;;;;;;;3.25;1.30;;;;;7.60;101128.00;;;;5092591;28;20225;-75
2023/02/24 03:25:16;;;;;;;3.05;1.13;;;;;7.60;101125.00;;;;5071727;28;20194;-75
2023/02/24 03:27:51;;;;;;;2.75;1.20;;;;;7.60;101135.00;;;;5089949;28;20244;-75
2023/02/24 03:30:25;;;;;;;4.88;1.38;;;;;7.60;101128.00;;;;5092213;28;20705;-75
2023/02/24 03:32:57;;;;;;;2.38;1.23;;;;;7.60;101120.00;;;;5091391;28;20206;-75
2023/02/24 03:35:28;;;;;;;3.50;1.40;;;;;7.60;101111.00;;;;5091613;28;20229;-75
2023/02/24 03:37:58;;;;;;;3.58;1.10;;;;;7.60;101114.00;;;;5090865;28;20743;-75
2023/02/24 03:40:31;;;;;;;2.90;1.10;;;;;7.70;101114.00;;;;5092508;28;20194;-75
2023/02/24 03:43:04;;;;;;;2.88;1.50;;;;;7.60;101103.00;;;;5092232;28;20289;-75
2023/02/24 03:45:35;;;;;;;3.08;1.40;;;;;7.70;101101.00;;;;5091516;28;20217;-75
2023/02/24 03:48:05;;;;;;;4.45;1.45;;;;;7.70;101101.00;;;;5086834;28;20606;-75
2023/02/24 03:50:36;;;;;;;5.20;1.35;;;;;7.70;101096.00;;;;5089290;28;20238;-75
2023/02/24 03:53:11;;;;;;;2.75;1.58;;;;;7.70;101100.00;;;;5091449;28;20194;-76
2023/02/24 03:55:57;;;;;;;4.00;1.75;;;;;7.70;101103.00;;;;5091246;28;20218;-75
2023/02/24 03:58:36;;;;;;;4.55;1.83;;;;;7.70;101101.00;;;;5071604;28;20199;-76
2023/02/24 04:01:10;;;;;;;3.17;1.52;;;;;7.80;101096.00;;;;5071524;28;20205;-75
2023/02/24 04:03:48;;;;;;;4.10;1.92;;;;;7.80;101092.00;;;;5085800;28;20201;-75
2023/02/24 04:06:22;;;;;;;4.68;2.00;;;;;7.80;101096.00;;;;5091272;28;20202;-75
2023/02/24 04:09:07;;;;;;;3.58;1.48;;;;;7.90;101095.00;;;;5090694;28;20194;-75
2023/02/24 04:11:42;;;;;;;3.53;1.83;;;;;7.90;101091.00;;;;5091384;28;20359;-75
2023/02/24 04:14:12;;;;;;;4.03;1.92;;;;;8.00;101085.00;;;;5090124;28;20200;-75
2023/02/24 04:16:47;;;;;;;4.50;1.98;;;;;8.00;101083.00;;;;5088610;28;20202;-74
2023/02/24 04:19:18;;;;;;;3.83;1.80;;;;;8.00;101083.00;;;;5089068;28;20198;-75
2023/02/24 04:21:48;;;;;;;5.75;2.10;;;;;8.00;101079.00;;;;5087009;28;20194;-75
2023/02/24 04:24:18;;;;;;;3.70;1.95;;;;;8.10;101067.00;;;;5088905;28;20255;-75
2023/02/24 04:26:48;;;;;;;3.50;1.92;;;;;8.10;101065.00;;;;5085994;28;20664;-75
2023/02/24 04:29:21;;;;;;;3.08;1.38;;;;;8.10;101069.00;;;;5091761;28;20201;-75
2023/02/24 04:31:52;;;;;;;2.85;1.63;;;;;8.20;101066.00;;;;5091191;28;20202;-75
2023/02/24 04:34:20;;;;;;;3.47;1.50;;;;;8.20;101055.00;;;;5090638;28;20236;-75
2023/02/24 04:36:49;;;;;;;3.70;1.35;;;;;8.20;101051.00;;;;5087906;28;20207;-75
2023/02/24 04:39:18;;;;;;;2.65;1.42;;;;;8.20;101043.00;;;;5090751;28;20612;-75
2023/02/24 04:41:48;;;;;;;2.60;1.67;;;;;8.30;101030.00;;;;5090396;28;20625;-75
2023/02/24 04:44:17;;;;;;;4.22;1.80;;;;;8.30;101027.00;;;;5091012;28;20298;-75
2023/02/24 04:46:44;;;;;;;4.43;1.60;;;;;8.30;101016.00;;;;5089668;28;20281;-75
2023/02/24 04:49:12;;;;;;;7.45;1.98;;;;;8.40;101010.00;;;;5091203;28;20212;-75
2023/02/24 04:51:41;;;;;;;3.88;1.70;;;;;8.40;101000.00;;;;5089751;28;20198;-75
2023/02/24 04:54:14;;;;;;;4.80;1.90;;;;;8.40;101009.00;;;;5091475;28;20194;-75
2023/02/24 04:56:43;;;;;;;4.30;1.67;;;;;8.40;101004.00;;;;5089162;28;20186;-75
2023/02/24 04:59:10;;;;;;;4.43;2.05;;;;;8.40;101005.00;;;;5090881;28;20212;-75
2023/02/24 05:01:39;;;;;;;2.88;1.80;;;;;8.50;101003.00;;;;5090815;28;20202;-75
2023/02/24 05:04:07;;;;;;;3.15;1.63;;;;;8.50;101002.00;;;;5090881;28;20190;-75
2023/02/24 05:06:34;;;;;;;2.97;1.73;;;;;8.50;101003.00;;;;5089635;28;20205;-75
2023/02/24 05:09:09;;;;;;;2.90;1.50;;;;;8.50;101004.00;;;;5089645;28;20686;-76
2023/02/24 05:11:41;;;;;;;10.45;1.92;;;;;8.50;101001.00;;;;5089996;28;20263;-75
2023/02/24 05:14:09;;;;;;;5.70;1.60;;;;;8.60;100986.00;;;;5089998;28;20206;-76
2023/02/24 05:16:36;;;;;;;4.53;1.63;;;;;8.60;100992.00;;;;5088324;28;20229;-75
2023/02/24 05:21:48;;;;;;;4.03;1.90;;;;;8.60;100974.00;;;;5089473;28;20213;-75
2023/02/24 05:24:16;;;;;;;5.65;1.48;;;;;8.60;100974.00;;;;5087197;28;20260;-75
2023/02/24 05:26:45;;;;;;;3.22;1.63;;;;;8.60;100978.00;;;;5087975;28;20207;-75
2023/02/24 05:29:13;;;;;;;3.47;1.77;;;;;8.60;100961.00;;;;5089598;28;20210;-75
2023/02/24 05:31:40;;;;;;;3.22;1.40;;;;;8.70;100957.00;;;;5088734;28;20285;-76
2023/02/24 05:34:08;;;;;;;2.85;1.15;;;;;8.70;100952.00;;;;5086603;28;20201;-75
2023/02/24 05:36:39;;;;;;;4.55;1.17;;;;;8.60;100949.00;;;;5089665;28;20229;-76
2023/02/24 05:39:11;;;;;;;3.45;1.75;;;;;8.70;100948.00;;;;5072451;28;20191;-75
2023/02/24 05:41:40;;;;;;;4.43;1.38;;;;;8.70;100940.00;;;;5089974;28;20202;-75
2023/02/24 05:44:12;;;;;;;2.72;1.35;;;;;8.70;100925.00;;;;5089041;28;20552;-75
2023/02/24 05:46:41;;;;;;;3.22;1.45;;;;;8.70;100928.00;;;;5088960;28;20222;-75
2023/02/24 05:49:13;;;;;;;3.60;1.60;;;;;8.70;100911.00;;;;5089043;28;20202;-75
2023/02/24 05:51:53;;;;;;;4.97;1.52;;;;;8.80;100920.00;;;;5073903;28;20218;-75
2023/02/24 05:54:22;;;;;;;3.72;1.27;;;;;8.80;100908.00;;;;5090026;28;20194;-75
2023/02/24 05:56:49;;;;;;;2.42;1.38;;;;;8.80;100908.00;;;;5088651;28;20258;-75
2023/02/24 05:59:20;;;;;;;5.03;1.55;;;;;8.80;100905.00;;;;5089484;28;20202;-75
2023/02/24 06:01:51;;;;;;;3.45;1.60;;;;;8.80;100899.00;;;;5088797;28;20198;-75
2023/02/24 06:04:38;;;;;;;2.88;0.98;;;;;8.90;100897.00;;;;5089598;28;20190;-75
2023/02/24 06:07:06;;;;;;;5.63;1.30;;;;;8.90;100886.00;;;;5088539;28;20251;-75
2023/02/24 06:09:38;;;;;;;4.15;1.35;;;;;8.90;100888.00;;;;5086757;28;20210;-75
2023/02/24 06:12:07;;;;;;;1.33;0.73;;;;;8.90;100885.00;;;;5084271;28;20210;-75
2023/02/24 06:14:36;;;;;;;3.40;1.33;;;;;9.00;100874.00;;;;5087330;28;20237;-76
2023/02/24 06:17:03;;;;;;;6.78;1.10;;;;;9.00;100866.00;;;;5085704;28;20195;-76
2023/02/24 06:19:31;;;;;;;4.28;1.00;;;;;9.00;100869.00;;;;5082976;28;20194;-76
2023/02/24 06:22:01;;;;;;;2.83;1.42;;;;;9.10;100872.00;;;;5083854;28;20295;-75
2023/02/24 06:24:29;;;;;;;3.50;1.00;;;;;9.10;100869.00;;;;5088474;28;20244;-75
2023/02/24 06:27:01;;;;;;;3.00;0.88;;;;;9.10;100871.00;;;;5088528;28;20218;-75
2023/02/24 06:29:29;;;;;;;4.10;1.17;;;;;9.10;100864.00;;;;5087742;28;20285;-75
2023/02/24 06:31:58;;;;;;;3.72;0.90;;;;;9.20;100860.00;;;;5087853;28;20198;-75
2023/02/24 06:34:26;;;;;;;4.95;0.90;;;;;9.20;100865.00;;;;5086731;28;20198;-76
2023/02/24 06:36:54;;;;;;;3.08;1.42;;;;;9.20;100861.00;;;;5084473;28;20228;-75
2023/02/24 06:39:21;;;;;;;3.38;0.70;;;;;9.30;100860.00;;;;5079659;28;20205;-75
2023/02/24 06:41:51;;;;;;;3.20;0.73;;;;;9.30;100849.00;;;;5088585;28;20198;-75
2023/02/24 06:44:19;;;;;;;2.80;1.10;;;;;9.30;100849.00;;;;5086729;28;20297;-75
2023/02/24 06:46:46;;;;;;;5.88;1.10;;;;;9.40;100846.00;;;;5084152;28;20236;-75
2023/02/24 06:49:15;;;;;;;1.55;0.85;;;;;9.40;100849.00;;;;5085912;28;20209;-74
2023/02/24 06:51:42;;;;;;;3.85;0.88;;;;;9.40;100855.00;;;;5087347;28;20288;-74
2023/02/24 06:54:09;;;;;;;2.75;0.95;;;;;9.50;100845.00;;;;5086638;28;20327;-75
2023/02/24 06:56:37;;;;;;;6.78;1.15;;;;;9.50;100835.00;;;;5087177;28;20628;-75
2023/02/24 06:59:10;;;;;;;2.95;1.08;;;;;9.50;100823.00;;;;5085293;28;20624;-75
2023/02/24 07:01:43;;;;;;;3.30;0.68;;;;;9.60;100823.00;;;;5082719;28;20602;-75
2023/02/24 07:04:19;;;;;;;3.15;0.70;;;;;9.60;100823.00;;;;5084088;28;20191;-74
2023/02/24 07:06:51;;;;;;;6.20;1.00;;;;;9.60;100822.00;;;;5086250;28;20200;-75
2023/02/24 07:09:19;;;;;;;2.35;1.20;;;;;9.70;100822.00;;;;5087658;28;20201;-75
2023/02/24 07:11:51;;;;;;;3.40;1.42;;;;;9.70;100815.00;;;;5070987;28;20376;-75
2023/02/24 07:14:20;;;;;;;2.40;1.05;;;;;9.70;100815.00;;;;5071764;28;20229;-75
2023/02/24 07:16:52;;;;;;;2.25;0.95;;;;;9.80;100809.00;;;;5086430;28;20240;-75
2023/02/24 07:19:22;;;;;;;3.35;0.90;;;;;9.80;100802.00;;;;5088892;28;20643;-75
2023/02/24 07:21:58;;;;;;;2.80;0.95;;;;;9.80;100796.00;;;;5087807;28;20213;-75
2023/02/24 07:24:31;;;;;;;4.03;1.10;;;;;9.80;100795.00;;;;5088508;28;20272;-76
2023/02/24 07:27:01;;;;;;;1.63;0.85;;;;;9.80;100801.00;;;;5079504;28;20726;-76
2023/02/24 07:29:32;;;;;;;5.40;0.88;;;;;9.90;100800.00;;;;5082734;28;20206;-76
2023/02/24 07:32:01;;;;;;;2.60;0.60;;;;;9.90;100801.00;;;;5087703;28;20202;-76
2023/02/24 07:34:29;;;;;;;1.80;0.60;;;;;9.90;100800.00;;;;5088361;28;20267;-76
2023/02/24 07:36:58;;;;;;;3.30;0.77;;;;;10.00;100804.00;;;;5087800;28;20703;-75
2023/02/24 07:39:25;;;;;;;1.40;0.70;;;;;10.00;100787.00;;;;5087203;28;20203;-76
2023/02/24 07:41:54;;;;;;;1.63;0.43;;;;;10.00;100790.00;;;;5085977;28;20201;-75
2023/02/24 07:44:23;;;;;;;5.82;1.10;;;;;10.10;100783.00;;;;5087458;28;20194;-76
2023/02/24 07:46:51;;;;;;;2.08;0.57;;;;;10.10;100785.00;;;;5086059;28;20608;-76
2023/02/24 07:49:24;;;;;;;5.10;1.10;;;;;10.10;100780.00;;;;5087193;28;20222;-76
2023/02/24 07:51:56;;;;;;;2.75;0.50;;;;;10.20;100775.00;;;;5084079;28;20602;-75
2023/02/24 07:54:28;;;;;;;4.53;1.00;;;;;10.20;100773.00;;;;5088167;28;20986;-75
2023/02/24 07:56:57;;;;;;;2.45;0.60;;;;;10.30;100776.00;;;;5088201;28;20684;-75
2023/02/24 07:59:27;;;;;;;1.70;0.68;;;;;10.30;100771.00;;;;5087050;28;20263;-75
2023/02/24 08:01:55;;;;;;;2.50;0.98;;;;;10.30;100758.00;;;;5086280;28;20198;-75
2023/02/24 08:04:24;;;;;;;3.05;0.77;;;;;10.30;100763.00;;;;5092122;28;20247;-75
2023/02/24 08:06:55;;;;;;;1.73;0.50;;;;;10.40;100757.00;;;;5090820;28;20237;-75
2023/02/24 08:12:16;;;;;;;2.22;0.80;;;;;10.50;100761.00;;;;5089452;28;20792;-75
2023/02/24 08:14:49;;;;;;;2.65;0.70;;;;;10.50;100762.00;;;;5089010;28;20198;-75
2023/02/24 08:17:18;;;;;;;6.25;0.77;;;;;10.60;100761.00;;;;5090306;28;20226;-75
2023/02/24 08:19:48;;;;;;;2.08;0.75;;;;;10.60;100751.00;;;;5075319;28;20186;-75
2023/02/24 08:22:19;;;;;;;2.42;0.98;;;;;10.60;100758.00;;;;5089136;28;20199;-75
2023/02/24 08:24:49;;;;;;;5.30;1.20;;;;;10.70;100754.00;;;;5086595;28;20247;-75
2023/02/24 08:27:18;;;;;;;5.45;1.42;;;;;10.70;100741.00;;;;5091294;28;20444;-75
2023/02/24 08:29:58;;;;;;;5.68;1.02;;;;;10.70;100752.00;;;;5088907;28;20664;-75
2023/02/24 08:32:32;;;;;;;6.45;0.95;;;;;10.80;100736.00;;;;5078138;28;20660;-75
2023/02/24 08:35:01;;;;;;;4.00;0.90;;;;;10.80;100733.00;;;;5078783;28;20199;-74
2023/02/24 08:37:38;;;;;;;1.25;0.80;;;;;10.90;100725.00;;;;5087756;28;20234;-74
2023/02/24 08:40:28;;;;;;;1.85;0.70;;;;;10.90;100729.00;;;;5089388;28;20196;-75
2023/02/24 08:42:57;;;;;;;2.42;0.73;;;;;11.00;100714.00;;;;5088625;28;20272;-75
2023/02/24 08:45:25;;;;;;;4.22;1.02;;;;;11.00;100705.00;;;;5069609;28;20198;-74
2023/02/24 08:47:59;;;;;;;2.30;0.90;;;;;11.10;100699.00;;;;5088206;28;20326;-74
2023/02/24 08:50:29;;;;;;;1.63;0.70;;;;;11.10;100703.00;;;;5076458;28;20202;-75
2023/02/24 08:52:57;;;;;;;3.35;1.33;;;;;11.20;100710.00;;;;5085672;28;20206;-75
2023/02/24 08:55:29;;;;;;;5.15;1.05;;;;;11.20;100710.00;;;;5069413;28;20199;-75
2023/02/24 08:58:00;;;;;;;3.28;1.17;;;;;11.20;100710.00;;;;5070394;28;21000;-74
2023/02/24 09:00:47;;;;;;;2.50;0.90;;;;;11.30;100710.00;;;;5089853;28;20198;-74
2023/02/24 09:03:26;;;;;;;1.60;0.90;;;;;11.30;100705.00;;;;5089176;28;20191;-75
2023/02/24 09:05:58;;;;;;;3.50;0.88;;;;;11.30;100698.00;;;;5076959;28;20687;-75
2023/02/24 09:08:31;;;;;;;2.55;0.88;;;;;11.30;100694.00;;;;5087792;28;20209;-75
2023/02/24 09:11:00;;;;;;;3.50;1.33;;;;;11.30;100692.00;;;;5079349;28;20632;-75
2023/02/24 09:13:31;;;;;;;1.90;0.90;;;;;11.40;100684.00;;;;5090164;28;20206;-75
2023/02/24 09:16:00;;;;;;;3.03;0.93;;;;;11.40;100688.00;;;;5089479;28;20264;-75
2023/02/24 09:18:37;;;;;;;3.42;1.13;;;;;11.40;100680.00;;;;5082790;28;20315;-74
2023/02/24 09:23:54;;;;;;;3.45;0.80;;;;;11.50;100675.00;;;;5069564;28;20247;-75
2023/02/24 09:26:23;;;;;;;3.88;1.02;;;;;11.50;100670.00;;;;5083656;28;20283;-74
2023/02/24 09:28:55;;;;;;;4.75;1.10;;;;;11.50;100659.00;;;;5087640;28;20199;-75
2023/02/24 09:31:23;;;;;;;3.88;1.25;;;;;11.60;100663.00;;;;5087186;28;20239;-75
2023/02/24 09:33:50;;;;;;;5.75;1.05;;;;;11.60;100652.00;;;;5088353;28;20282;-75
2023/02/24 09:36:26;;;;;;;3.85;1.25;;;;;11.60;100640.00;;;;5088216;28;20221;-75
2023/02/24 09:39:13;;;;;;;2.72;0.90;;;;;11.70;100637.00;;;;5087969;28;20283;-75
2023/02/24 09:41:55;;;;;;;3.30;1.20;;;;;11.70;100631.00;;;;5088236;28;20198;-75
2023/02/24 09:44:28;;;;;;;2.95;1.20;;;;;11.70;100632.00;;;;5087525;28;20217;-74
2023/02/24 09:47:07;;;;;;;3.33;0.90;;;;;11.80;100630.00;;;;5081440;28;20226;-74
2023/02/24 09:49:45;;;;;;;3.20;1.02;;;;;11.80;100629.00;;;;5068935;28;20304;-74
2023/02/24 09:52:17;;;;;;;5.80;1.55;;;;;11.90;100630.00;;;;5084418;28;20219;-75
2023/02/24 09:55:17;;;;;;;3.70;1.10;;;;;11.90;100625.00;;;;5082357;28;20203;-75
2023/02/24 10:00:37;;;;;;;2.70;1.27;;;;;12.00;100624.00;;;;5081616;28;20283;-75
2023/02/24 10:03:19;;;;;;;5.68;1.48;;;;;12.00;100615.00;;;;5086287;28;20202;-75
2023/02/24 10:05:57;;;;;;;3.92;1.50;;;;;12.00;100595.00;;;;5088335;28;20232;-75
2023/02/24 10:08:33;;;;;;;5.00;1.40;;;;;12.00;100608.00;;;;5087487;28;20194;-75
2023/02/24 10:11:05;;;;;;;4.05;1.25;;;;;12.00;100605.00;;;;5079989;28;20685;-75
2023/02/24 10:13:38;;;;;;;6.85;1.23;;;;;12.00;100598.00;;;;5068794;28;20202;-75
2023/02/24 10:16:10;;;;;;;7.43;1.35;;;;;12.10;100594.00;;;;5083790;28;20214;-75
2023/02/24 10:18:43;;;;;;;4.30;1.40;;;;;12.10;100594.00;;;;5088387;28;20190;-75
2023/02/24 10:21:29;;;;;;;9.50;1.85;;;;;12.10;100595.00;;;;5088330;28;20221;-75
2023/02/24 10:24:04;;;;;;;6.22;1.35;;;;;12.10;100599.00;;;;5086512;28;20207;-75
2023/02/24 10:26:43;;;;;;;3.55;1.42;;;;;12.10;100597.00;;;;5088055;28;20236;-75
2023/02/24 10:29:28;;;;;;;3.17;1.52;;;;;12.10;100600.00;;;;5087268;28;20198;-75
2023/02/24 10:32:05;;;;;;;8.27;1.92;;;;;12.20;100593.00;;;;5087956;28;20202;-75
2023/02/24 10:34:33;;;;;;;4.32;1.50;;;;;12.20;100594.00;;;;5088934;28;20198;-75
2023/02/24 10:37:10;;;;;;;7.55;1.58;;;;;12.20;100577.00;;;;5088194;28;20642;-75
2023/02/24 10:39:42;;;;;;;3.08;1.10;;;;;12.20;100573.00;;;;5087744;28;20201;-75
2023/02/24 10:42:16;;;;;;;4.00;1.63;;;;;12.30;100570.00;;;;5083583;28;20241;-75
2023/02/24 10:44:51;;;;;;;3.58;1.77;;;;;12.20;100575.00;;;;5070361;28;20678;-76
2023/02/24 10:47:29;;;;;;;5.40;1.13;;;;;12.30;100568.00;;;;5087649;28;20226;-76
2023/02/24 10:50:00;;;;;;;4.35;1.33;;;;;12.30;100568.00;;;;5086192;28;20210;-75
2023/02/24 10:52:49;;;;;;;4.57;1.73;;;;;12.30;100560.00;;;;5082330;28;20275;-75
2023/02/24 10:55:27;;;;;;;6.05;1.27;;;;;12.30;100570.00;;;;5088466;28;20570;-75
2023/02/24 10:58:05;;;;;;;4.55;2.03;;;;;12.30;100553.00;;;;5078121;28;20238;-76
2023/02/24 11:01:11;;;;;;;2.00;1.27;;;;;12.30;100561.00;;;;5070141;28;20557;-76
2023/02/24 11:03:41;;;;;;;3.28;1.58;;;;;12.30;100562.00;;;;5081344;28;20250;-76
2023/02/24 11:06:51;;;;;;;3.70;2.20;;;;;12.20;100558.00;;;;5087319;28;20763;-76
2023/02/24 11:17:49;;;;;;;3.15;1.50;;;;;12.20;100534.00;;;;5086012;28;20224;-77
2023/02/24 11:20:26;;;;;;;4.85;1.88;;;;;12.30;100542.00;;;;5082095;28;20288;-76
2023/02/24 11:22:56;;;;;;;6.10;1.77;;;;;12.30;100524.00;;;;5087384;28;20209;-76
2023/02/24 11:25:26;;;;;;;4.03;1.90;;;;;12.30;100532.00;;;;5088018;28;20666;-76
2023/02/24 11:27:54;;;;;;;2.70;1.88;;;;;12.40;100517.00;;;;5077085;28;20206;-76
2023/02/24 11:30:29;;;;;;;4.05;1.42;;;;;12.40;100511.00;;;;5068131;28;20202;-76
2023/02/24 11:33:13;;;;;;;3.80;1.95;;;;;12.40;100511.00;;;;5071734;28;20212;-76
2023/02/24 11:35:50;;;;;;;3.55;2.15;;;;;12.40;100515.00;;;;5078462;28;20694;-76
2023/02/24 11:38:29;;;;;;;3.70;1.67;;;;;12.40;100507.00;;;;5091833;28;20226;-76
2023/02/24 11:41:05;;;;;;;2.95;1.55;;;;;12.50;100502.00;;;;5088719;28;20198;-77
2023/02/24 11:43:35;;;;;;;1.73;1.20;;;;;12.50;100512.00;;;;5088757;28;20396;-76
2023/02/24 11:46:09;;;;;;;3.67;1.83;;;;;12.50;100510.00;;;;5090912;28;20194;-76
2023/02/24 11:48:42;;;;;;;3.08;1.98;;;;;12.50;100494.00;;;;5092014;28;20202;-76
2023/02/24 11:51:16;;;;;;;4.55;1.70;;;;;12.50;100498.00;;;;5089986;28;20679;-76
2023/02/24 11:53:49;;;;;;;4.13;1.67;;;;;12.60;100501.00;;;;5071187;28;20193;-76
2023/02/24 11:56:22;;;;;;;4.55;2.00;;;;;12.50;100486.00;;;;5082004;28;20664;-76
2023/02/24 11:58:54;;;;;;;2.65;1.67;;;;;12.60;100487.00;;;;5088047;28;20228;-76
2023/02/24 12:01:29;;;;;;;2.60;1.42;;;;;12.60;100478.00;;;;5091381;28;20209;-76
2023/02/24 12:04:06;;;;;;;3.90;1.60;;;;;12.70;100468.00;;;;5089169;28;20209;-76
2023/02/24 12:06:39;;;;;;;2.55;1.80;;;;;12.70;100465.00;;;;5091621;28;20194;-76
2023/02/24 12:09:12;;;;;;;2.63;2.00;;;;;12.80;100461.00;;;;5091483;28;20199;-76
2023/02/24 12:11:48;;;;;;;3.00;1.83;;;;;12.90;100466.00;;;;5088377;28;20591;-76
2023/02/24 12:14:22;;;;;;;3.13;2.05;;;;;13.00;100468.00;;;;5084584;28;20198;-76
2023/02/24 12:16:56;;;;;;;4.15;1.80;;;;;13.00;100457.00;;;;5087346;28;20229;-76
2023/02/24 12:19:33;;;;;;;2.72;2.47;;;;;13.10;100453.00;;;;5090721;28;20214;-76
2023/02/24 12:22:06;;;;;;;2.40;2.17;;;;;13.20;100456.00;;;;5087391;28;20200;-76
2023/02/24 12:24:36;;;;;;;2.85;1.88;;;;;13.20;100447.00;;;;5087905;28;20201;-76
2023/02/24 12:27:14;;;;;;;5.25;2.63;;;;;13.30;100446.00;;;;5083067;28;20214;-76
2023/02/24 12:30:05;;;;;;;4.25;2.55;;;;;13.30;100435.00;;;;5090605;28;20656;-76
2023/02/24 12:32:46;;;;;;;3.03;2.70;;;;;13.40;100436.00;;;;5088983;28;20317;-76
2023/02/24 12:35:21;;;;;;;3.60;2.20;;;;;13.50;100442.00;;;;5083740;28;20206;-76
2023/02/24 12:38:08;;;;;;;4.80;3.08;;;;;13.50;100425.00;;;;5088286;28;20706;-76
2023/02/24 12:40:44;;;;;;;3.45;2.25;;;;;13.70;100419.00;;;;5089769;28;20659;-76
2023/02/24 12:43:24;;;;;;;5.25;2.83;;;;;13.70;100430.00;;;;5088636;28;20209;-76
2023/02/24 12:45:56;;;;;;;5.70;2.95;;;;;13.80;100415.00;;;;5078609;28;20292;-76
2023/02/24 12:48:45;;;;;;;4.40;2.20;;;;;13.80;100420.00;;;;5088684;28;20229;-76
2023/02/24 12:51:21;;;;;;;5.38;3.08;;;;;13.90;100417.00;;;;5090865;28;20417;-76
2023/02/24 12:53:56;;;;;;;5.22;2.97;;;;;13.90;100413.00;;;;5089437;28;20434;-76
2023/02/24 12:56:26;;;;;;;8.88;3.67;;;;;14.00;100412.00;;;;5089603;28;20235;-76
2023/02/24 12:58:57;;;;;;;3.85;2.40;;;;;14.00;100412.00;;;;5088457;28;20667;-76
2023/02/24 13:01:30;;;;;;;7.60;2.80;;;;;14.10;100408.00;;;;5089576;28;20194;-76
2023/02/24 13:04:06;;;;;;;3.22;2.10;;;;;14.10;100401.00;;;;5088790;28;20194;-76